sensor_id;sensor_type;location;lat;lon;timestamp;P1;durP1;ratioP1;P2;durP2;ratioP2
51288;SDS011;37372;52.294;5.152;2023-03-01T00:00:24;18.08;;;11.10;;
51288;SDS011;37372;52.294;5.152;2023-03-01T00:02:52;23.55;;;12.77;;
51288;SDS011;37372;52.294;5.152;2023-03-01T00:05:20;22.60;;;12.88;;
51288;SDS011;37372;52.294;5.152;2023-03-01T00:07:53;24.23;;;14.35;;
51288;SDS011;37372;52.294;5.152;2023-03-01T00:10:28;25.42;;;14.63;;
51288;SDS011;37372;52.294;5.152;2023-03-01T00:12:57;26.05;;;14.70;;
51288;SDS011;37372;52.294;5.152;2023-03-01T00:15:22;24.95;;;15.80;;
51288;SDS011;37372;52.294;5.152;2023-03-01T00:17:51;24.38;;;15.27;;
51288;SDS011;37372;52.294;5.152;2023-03-01T00:20:24;25.75;;;15.57;;
51288;SDS011;37372;52.294;5.152;2023-03-01T00:22:52;25.45;;;16.17;;
51288;SDS011;37372;52.294;5.152;2023-03-01T00:25:22;25.63;;;15.23;;
51288;SDS011;37372;52.294;5.152;2023-03-01T00:28:07;28.23;;;16.88;;
51288;SDS011;37372;52.294;5.152;2023-03-01T00:30:41;30.73;;;17.20;;
51288;SDS011;37372;52.294;5.152;2023-03-01T00:33:13;30.75;;;16.83;;
51288;SDS011;37372;52.294;5.152;2023-03-01T00:35:45;34.72;;;19.02;;
51288;SDS011;37372;52.294;5.152;2023-03-01T00:38:11;27.48;;;17.38;;
51288;SDS011;37372;52.294;5.152;2023-03-01T00:40:43;30.15;;;17.80;;
51288;SDS011;37372;52.294;5.152;2023-03-01T00:43:21;31.58;;;17.48;;
51288;SDS011;37372;52.294;5.152;2023-03-01T00:45:51;33.47;;;17.55;;
51288;SDS011;37372;52.294;5.152;2023-03-01T00:48:16;29.33;;;17.00;;
51288;SDS011;37372;52.294;5.152;2023-03-01T00:50:41;31.23;;;17.92;;
51288;SDS011;37372;52.294;5.152;2023-03-01T00:53:07;26.58;;;17.67;;
51288;SDS011;37372;52.294;5.152;2023-03-01T00:55:32;28.75;;;17.40;;
51288;SDS011;37372;52.294;5.152;2023-03-01T00:58:01;29.83;;;16.30;;
51288;SDS011;37372;52.294;5.152;2023-03-01T01:00:27;26.77;;;17.08;;
51288;SDS011;37372;52.294;5.152;2023-03-01T01:02:58;30.40;;;18.73;;
51288;SDS011;37372;52.294;5.152;2023-03-01T01:05:29;27.85;;;16.38;;
51288;SDS011;37372;52.294;5.152;2023-03-01T01:08:00;29.55;;;17.15;;
51288;SDS011;37372;52.294;5.152;2023-03-01T01:10:33;28.63;;;17.40;;
51288;SDS011;37372;52.294;5.152;2023-03-01T01:13:02;29.40;;;17.75;;
51288;SDS011;37372;52.294;5.152;2023-03-01T01:15:31;28.02;;;17.25;;
51288;SDS011;37372;52.294;5.152;2023-03-01T01:18:06;30.90;;;19.38;;
51288;SDS011;37372;52.294;5.152;2023-03-01T01:20:32;32.97;;;17.67;;
51288;SDS011;37372;52.294;5.152;2023-03-01T01:23:05;32.97;;;18.20;;
51288;SDS011;37372;52.294;5.152;2023-03-01T01:25:48;28.67;;;17.95;;
51288;SDS011;37372;52.294;5.152;2023-03-01T01:28:17;31.58;;;17.92;;
51288;SDS011;37372;52.294;5.152;2023-03-01T01:30:42;27.58;;;17.02;;
51288;SDS011;37372;52.294;5.152;2023-03-01T01:33:08;32.95;;;18.63;;
51288;SDS011;37372;52.294;5.152;2023-03-01T01:35:33;34.28;;;19.42;;
51288;SDS011;37372;52.294;5.152;2023-03-01T01:38:05;34.85;;;18.20;;
51288;SDS011;37372;52.294;5.152;2023-03-01T01:40:42;29.38;;;18.77;;
51288;SDS011;37372;52.294;5.152;2023-03-01T01:43:22;32.13;;;17.40;;
51288;SDS011;37372;52.294;5.152;2023-03-01T01:45:57;30.13;;;16.88;;
51288;SDS011;37372;52.294;5.152;2023-03-01T01:48:47;28.73;;;17.73;;
51288;SDS011;37372;52.294;5.152;2023-03-01T01:51:23;28.95;;;17.20;;
51288;SDS011;37372;52.294;5.152;2023-03-01T01:54:03;31.30;;;17.55;;
51288;SDS011;37372;52.294;5.152;2023-03-01T01:56:37;34.20;;;19.20;;
51288;SDS011;37372;52.294;5.152;2023-03-01T02:01:41;32.25;;;18.25;;
51288;SDS011;37372;52.294;5.152;2023-03-01T02:04:07;29.35;;;17.88;;
51288;SDS011;37372;52.294;5.152;2023-03-01T02:06:41;27.80;;;18.92;;
51288;SDS011;37372;52.294;5.152;2023-03-01T02:09:25;29.85;;;17.88;;
51288;SDS011;37372;52.294;5.152;2023-03-01T02:11:55;28.83;;;17.35;;
51288;SDS011;37372;52.294;5.152;2023-03-01T02:14:44;31.77;;;17.65;;
51288;SDS011;37372;52.294;5.152;2023-03-01T02:17:13;33.60;;;18.92;;
51288;SDS011;37372;52.294;5.152;2023-03-01T02:26:19;31.23;;;18.42;;
51288;SDS011;37372;52.294;5.152;2023-03-01T02:28:55;30.83;;;18.45;;
51288;SDS011;37372;52.294;5.152;2023-03-01T02:31:31;33.13;;;18.45;;
51288;SDS011;37372;52.294;5.152;2023-03-01T02:34:17;37.85;;;18.13;;
51288;SDS011;37372;52.294;5.152;2023-03-01T02:36:55;32.28;;;17.38;;
51288;SDS011;37372;52.294;5.152;2023-03-01T02:39:50;31.52;;;17.83;;
51288;SDS011;37372;52.294;5.152;2023-03-01T02:42:30;29.65;;;17.25;;
51288;SDS011;37372;52.294;5.152;2023-03-01T02:45:02;32.70;;;18.35;;
51288;SDS011;37372;52.294;5.152;2023-03-01T02:47:28;30.48;;;18.63;;
51288;SDS011;37372;52.294;5.152;2023-03-01T02:49:55;30.05;;;16.92;;
51288;SDS011;37372;52.294;5.152;2023-03-01T02:55:26;32.37;;;17.60;;
51288;SDS011;37372;52.294;5.152;2023-03-01T02:57:52;35.63;;;16.73;;
51288;SDS011;37372;52.294;5.152;2023-03-01T03:00:26;30.35;;;17.70;;
51288;SDS011;37372;52.294;5.152;2023-03-01T03:02:58;31.92;;;18.92;;
51288;SDS011;37372;52.294;5.152;2023-03-01T03:05:27;30.52;;;17.73;;
51288;SDS011;37372;52.294;5.152;2023-03-01T03:07:54;29.23;;;18.52;;
51288;SDS011;37372;52.294;5.152;2023-03-01T03:10:24;26.95;;;16.20;;
51288;SDS011;37372;52.294;5.152;2023-03-01T03:12:52;29.35;;;17.50;;
51288;SDS011;37372;52.294;5.152;2023-03-01T03:15:23;31.80;;;17.25;;
51288;SDS011;37372;52.294;5.152;2023-03-01T03:17:49;31.90;;;19.13;;
51288;SDS011;37372;52.294;5.152;2023-03-01T03:20:24;32.58;;;16.58;;
51288;SDS011;37372;52.294;5.152;2023-03-01T03:22:52;31.20;;;17.88;;
51288;SDS011;37372;52.294;5.152;2023-03-01T03:25:22;31.98;;;17.67;;
51288;SDS011;37372;52.294;5.152;2023-03-01T03:27:48;32.97;;;18.40;;
51288;SDS011;37372;52.294;5.152;2023-03-01T03:30:23;33.13;;;19.70;;
51288;SDS011;37372;52.294;5.152;2023-03-01T03:32:52;36.30;;;19.42;;
51288;SDS011;37372;52.294;5.152;2023-03-01T03:35:28;30.40;;;17.38;;
51288;SDS011;37372;52.294;5.152;2023-03-01T03:37:56;31.20;;;17.63;;
51288;SDS011;37372;52.294;5.152;2023-03-01T03:40:37;32.33;;;18.88;;
51288;SDS011;37372;52.294;5.152;2023-03-01T03:43:28;32.90;;;18.45;;
51288;SDS011;37372;52.294;5.152;2023-03-01T03:46:01;32.50;;;18.95;;
51288;SDS011;37372;52.294;5.152;2023-03-01T03:48:36;31.58;;;17.75;;
51288;SDS011;37372;52.294;5.152;2023-03-01T03:51:03;34.38;;;16.20;;
51288;SDS011;37372;52.294;5.152;2023-03-01T03:53:34;29.65;;;17.30;;
51288;SDS011;37372;52.294;5.152;2023-03-01T03:56:00;26.92;;;17.17;;
51288;SDS011;37372;52.294;5.152;2023-03-01T03:58:30;31.63;;;16.65;;
51288;SDS011;37372;52.294;5.152;2023-03-01T04:01:06;28.23;;;17.83;;
51288;SDS011;37372;52.294;5.152;2023-03-01T04:03:35;30.92;;;17.45;;
51288;SDS011;37372;52.294;5.152;2023-03-01T04:06:03;26.25;;;15.80;;
51288;SDS011;37372;52.294;5.152;2023-03-01T04:08:44;27.83;;;16.75;;
51288;SDS011;37372;52.294;5.152;2023-03-01T04:11:12;28.33;;;16.48;;
51288;SDS011;37372;52.294;5.152;2023-03-01T04:14:00;30.05;;;16.80;;
51288;SDS011;37372;52.294;5.152;2023-03-01T04:16:29;28.85;;;16.95;;
51288;SDS011;37372;52.294;5.152;2023-03-01T04:19:04;27.40;;;16.10;;
51288;SDS011;37372;52.294;5.152;2023-03-01T04:21:31;30.63;;;17.20;;
51288;SDS011;37372;52.294;5.152;2023-03-01T04:23:57;29.55;;;16.65;;
51288;SDS011;37372;52.294;5.152;2023-03-01T04:26:34;26.73;;;16.05;;
51288;SDS011;37372;52.294;5.152;2023-03-01T04:28:59;25.38;;;15.80;;
51288;SDS011;37372;52.294;5.152;2023-03-01T04:31:31;29.25;;;16.60;;
51288;SDS011;37372;52.294;5.152;2023-03-01T04:33:57;31.13;;;17.35;;
51288;SDS011;37372;52.294;5.152;2023-03-01T04:36:26;25.90;;;15.88;;
51288;SDS011;37372;52.294;5.152;2023-03-01T04:38:53;29.63;;;18.70;;
51288;SDS011;37372;52.294;5.152;2023-03-01T04:41:21;32.80;;;18.67;;
51288;SDS011;37372;52.294;5.152;2023-03-01T04:43:48;30.17;;;17.15;;
51288;SDS011;37372;52.294;5.152;2023-03-01T04:46:18;29.23;;;16.50;;
51288;SDS011;37372;52.294;5.152;2023-03-01T04:48:49;31.35;;;17.25;;
51288;SDS011;37372;52.294;5.152;2023-03-01T04:51:15;33.28;;;18.02;;
51288;SDS011;37372;52.294;5.152;2023-03-01T04:53:48;33.90;;;19.23;;
51288;SDS011;37372;52.294;5.152;2023-03-01T04:56:17;29.35;;;16.85;;
51288;SDS011;37372;52.294;5.152;2023-03-01T04:58:47;36.28;;;17.85;;
51288;SDS011;37372;52.294;5.152;2023-03-01T05:01:18;33.30;;;18.42;;
51288;SDS011;37372;52.294;5.152;2023-03-01T05:03:50;32.10;;;18.00;;
51288;SDS011;37372;52.294;5.152;2023-03-01T05:06:28;32.63;;;17.95;;
51288;SDS011;37372;52.294;5.152;2023-03-01T05:08:57;31.85;;;18.17;;
51288;SDS011;37372;52.294;5.152;2023-03-01T05:11:23;31.90;;;17.92;;
51288;SDS011;37372;52.294;5.152;2023-03-01T05:14:03;29.85;;;18.27;;
51288;SDS011;37372;52.294;5.152;2023-03-01T05:16:31;29.30;;;17.33;;
51288;SDS011;37372;52.294;5.152;2023-03-01T05:19:29;29.52;;;16.65;;
51288;SDS011;37372;52.294;5.152;2023-03-01T05:21:58;26.45;;;15.57;;
51288;SDS011;37372;52.294;5.152;2023-03-01T05:24:34;32.45;;;17.50;;
51288;SDS011;37372;52.294;5.152;2023-03-01T05:27:01;29.33;;;16.75;;
51288;SDS011;37372;52.294;5.152;2023-03-01T05:29:28;30.38;;;16.13;;
51288;SDS011;37372;52.294;5.152;2023-03-01T05:31:58;33.92;;;16.27;;
51288;SDS011;37372;52.294;5.152;2023-03-01T05:34:30;32.08;;;18.40;;
51288;SDS011;37372;52.294;5.152;2023-03-01T05:36:58;32.55;;;19.20;;
51288;SDS011;37372;52.294;5.152;2023-03-01T05:39:25;29.55;;;16.73;;
51288;SDS011;37372;52.294;5.152;2023-03-01T05:41:57;27.73;;;15.98;;
51288;SDS011;37372;52.294;5.152;2023-03-01T05:44:34;29.67;;;17.48;;
51288;SDS011;37372;52.294;5.152;2023-03-01T05:47:00;33.92;;;16.95;;
51288;SDS011;37372;52.294;5.152;2023-03-01T05:49:26;27.17;;;16.27;;
51288;SDS011;37372;52.294;5.152;2023-03-01T05:51:52;29.35;;;16.30;;
51288;SDS011;37372;52.294;5.152;2023-03-01T05:54:21;35.78;;;17.27;;
51288;SDS011;37372;52.294;5.152;2023-03-01T05:56:49;33.50;;;18.45;;
51288;SDS011;37372;52.294;5.152;2023-03-01T05:59:15;29.42;;;17.13;;
51288;SDS011;37372;52.294;5.152;2023-03-01T06:01:44;29.13;;;15.98;;
51288;SDS011;37372;52.294;5.152;2023-03-01T06:04:15;32.80;;;17.73;;
51288;SDS011;37372;52.294;5.152;2023-03-01T06:06:47;29.25;;;16.58;;
51288;SDS011;37372;52.294;5.152;2023-03-01T06:09:13;26.95;;;16.08;;
51288;SDS011;37372;52.294;5.152;2023-03-01T06:11:45;26.63;;;15.45;;
51288;SDS011;37372;52.294;5.152;2023-03-01T06:16:50;35.53;;;17.58;;
51288;SDS011;37372;52.294;5.152;2023-03-01T06:19:16;29.30;;;16.25;;
51288;SDS011;37372;52.294;5.152;2023-03-01T06:21:41;26.85;;;15.07;;
51288;SDS011;37372;52.294;5.152;2023-03-01T06:24:07;29.45;;;17.20;;
51288;SDS011;37372;52.294;5.152;2023-03-01T06:26:33;30.60;;;16.27;;
51288;SDS011;37372;52.294;5.152;2023-03-01T06:29:07;30.20;;;16.08;;
51288;SDS011;37372;52.294;5.152;2023-03-01T06:31:40;29.08;;;16.13;;
51288;SDS011;37372;52.294;5.152;2023-03-01T06:34:18;30.30;;;17.45;;
51288;SDS011;37372;52.294;5.152;2023-03-01T06:36:44;30.65;;;17.40;;
51288;SDS011;37372;52.294;5.152;2023-03-01T06:39:14;30.38;;;16.95;;
51288;SDS011;37372;52.294;5.152;2023-03-01T06:41:46;32.55;;;17.75;;
51288;SDS011;37372;52.294;5.152;2023-03-01T06:44:18;32.85;;;18.48;;
51288;SDS011;37372;52.294;5.152;2023-03-01T06:46:44;31.85;;;17.88;;
51288;SDS011;37372;52.294;5.152;2023-03-01T06:49:14;33.97;;;17.02;;
51288;SDS011;37372;52.294;5.152;2023-03-01T06:51:44;30.60;;;17.23;;
51288;SDS011;37372;52.294;5.152;2023-03-01T06:54:15;33.67;;;18.08;;
51288;SDS011;37372;52.294;5.152;2023-03-01T06:56:50;33.53;;;18.90;;
51288;SDS011;37372;52.294;5.152;2023-03-01T06:59:19;33.95;;;17.48;;
51288;SDS011;37372;52.294;5.152;2023-03-01T07:01:45;31.48;;;17.70;;
51288;SDS011;37372;52.294;5.152;2023-03-01T07:04:18;34.60;;;18.65;;
51288;SDS011;37372;52.294;5.152;2023-03-01T07:06:49;33.95;;;18.70;;
51288;SDS011;37372;52.294;5.152;2023-03-01T07:09:23;35.03;;;19.63;;
51288;SDS011;37372;52.294;5.152;2023-03-01T07:11:49;35.75;;;20.17;;
51288;SDS011;37372;52.294;5.152;2023-03-01T07:14:20;39.20;;;20.73;;
51288;SDS011;37372;52.294;5.152;2023-03-01T07:16:49;40.20;;;22.65;;
51288;SDS011;37372;52.294;5.152;2023-03-01T07:19:22;40.28;;;23.17;;
51288;SDS011;37372;52.294;5.152;2023-03-01T07:21:49;40.35;;;21.30;;
51288;SDS011;37372;52.294;5.152;2023-03-01T07:24:36;36.53;;;21.25;;
51288;SDS011;37372;52.294;5.152;2023-03-01T07:27:01;32.85;;;18.30;;
51288;SDS011;37372;52.294;5.152;2023-03-01T07:29:28;36.95;;;19.48;;
51288;SDS011;37372;52.294;5.152;2023-03-01T07:31:54;30.42;;;17.88;;
51288;SDS011;37372;52.294;5.152;2023-03-01T07:34:23;36.33;;;18.95;;
51288;SDS011;37372;52.294;5.152;2023-03-01T07:36:58;78.60;;;27.98;;
51288;SDS011;37372;52.294;5.152;2023-03-01T07:39:27;63.70;;;27.10;;
51288;SDS011;37372;52.294;5.152;2023-03-01T07:41:53;84.65;;;27.90;;
51288;SDS011;37372;52.294;5.152;2023-03-01T07:44:37;95.65;;;32.28;;
51288;SDS011;37372;52.294;5.152;2023-03-01T07:47:03;105.68;;;28.50;;
51288;SDS011;37372;52.294;5.152;2023-03-01T07:49:29;106.15;;;30.92;;
51288;SDS011;37372;52.294;5.152;2023-03-01T07:51:57;120.25;;;29.00;;
51288;SDS011;37372;52.294;5.152;2023-03-01T07:54:23;140.43;;;32.35;;
51288;SDS011;37372;52.294;5.152;2023-03-01T07:56:52;189.95;;;34.35;;
51288;SDS011;37372;52.294;5.152;2023-03-01T07:59:23;76.22;;;30.15;;
51288;SDS011;37372;52.294;5.152;2023-03-01T08:01:59;44.05;;;25.50;;
51288;SDS011;37372;52.294;5.152;2023-03-01T08:04:34;96.40;;;29.00;;
51288;SDS011;37372;52.294;5.152;2023-03-01T08:07:04;115.03;;;29.80;;
51288;SDS011;37372;52.294;5.152;2023-03-01T08:09:30;90.72;;;26.75;;
51288;SDS011;37372;52.294;5.152;2023-03-01T08:11:59;77.28;;;26.80;;
51288;SDS011;37372;52.294;5.152;2023-03-01T08:14:24;73.30;;;24.02;;
51288;SDS011;37372;52.294;5.152;2023-03-01T08:16:53;42.45;;;23.85;;
51288;SDS011;37372;52.294;5.152;2023-03-01T08:19:23;119.50;;;26.75;;
51288;SDS011;37372;52.294;5.152;2023-03-01T08:21:56;59.55;;;24.95;;
51288;SDS011;37372;52.294;5.152;2023-03-01T08:24:32;73.40;;;24.98;;
51288;SDS011;37372;52.294;5.152;2023-03-01T08:27:01;57.60;;;24.80;;
51288;SDS011;37372;52.294;5.152;2023-03-01T08:29:28;40.78;;;23.75;;
51288;SDS011;37372;52.294;5.152;2023-03-01T08:31:56;43.05;;;24.05;;
51288;SDS011;37372;52.294;5.152;2023-03-01T08:34:28;45.47;;;24.77;;
51288;SDS011;37372;52.294;5.152;2023-03-01T08:37:01;37.38;;;22.80;;
51288;SDS011;37372;52.294;5.152;2023-03-01T08:39:28;43.63;;;23.33;;
51288;SDS011;37372;52.294;5.152;2023-03-01T08:42:00;40.90;;;23.55;;
51288;SDS011;37372;52.294;5.152;2023-03-01T08:44:34;42.03;;;23.38;;
51288;SDS011;37372;52.294;5.152;2023-03-01T08:47:00;39.85;;;23.88;;
51288;SDS011;37372;52.294;5.152;2023-03-01T08:49:29;42.83;;;24.40;;
51288;SDS011;37372;52.294;5.152;2023-03-01T08:52:01;50.33;;;25.42;;
51288;SDS011;37372;52.294;5.152;2023-03-01T08:54:34;42.33;;;24.40;;
51288;SDS011;37372;52.294;5.152;2023-03-01T08:57:02;41.50;;;24.88;;
51288;SDS011;37372;52.294;5.152;2023-03-01T08:59:32;44.08;;;25.10;;
51288;SDS011;37372;52.294;5.152;2023-03-01T09:02:03;45.53;;;24.98;;
51288;SDS011;37372;52.294;5.152;2023-03-01T09:04:33;41.80;;;24.77;;
51288;SDS011;37372;52.294;5.152;2023-03-01T09:07:00;44.95;;;25.25;;
51288;SDS011;37372;52.294;5.152;2023-03-01T09:12:11;48.17;;;25.25;;
51288;SDS011;37372;52.294;5.152;2023-03-01T09:14:37;47.50;;;25.67;;
51288;SDS011;37372;52.294;5.152;2023-03-01T09:17:04;44.08;;;26.25;;
51288;SDS011;37372;52.294;5.152;2023-03-01T09:19:51;42.92;;;23.13;;
51288;SDS011;37372;52.294;5.152;2023-03-01T09:22:16;42.17;;;22.40;;
51288;SDS011;37372;52.294;5.152;2023-03-01T09:24:44;34.08;;;19.10;;
51288;SDS011;37372;52.294;5.152;2023-03-01T09:27:12;31.27;;;17.48;;
51288;SDS011;37372;52.294;5.152;2023-03-01T09:29:42;29.05;;;15.68;;
51288;SDS011;37372;52.294;5.152;2023-03-01T09:32:13;24.05;;;15.90;;
51288;SDS011;37372;52.294;5.152;2023-03-01T09:34:41;27.42;;;16.40;;
51288;SDS011;37372;52.294;5.152;2023-03-01T09:37:32;25.38;;;14.55;;
51288;SDS011;37372;52.294;5.152;2023-03-01T09:39:59;21.00;;;13.77;;
51288;SDS011;37372;52.294;5.152;2023-03-01T09:42:25;21.50;;;13.60;;
51288;SDS011;37372;52.294;5.152;2023-03-01T09:44:52;22.92;;;13.10;;
51288;SDS011;37372;52.294;5.152;2023-03-01T09:47:32;22.50;;;12.98;;
51288;SDS011;37372;52.294;5.152;2023-03-01T09:50:06;21.08;;;13.65;;
51288;SDS011;37372;52.294;5.152;2023-03-01T09:52:50;22.67;;;13.68;;
51288;SDS011;37372;52.294;5.152;2023-03-01T09:55:44;21.80;;;13.75;;
51288;SDS011;37372;52.294;5.152;2023-03-01T10:01:03;24.27;;;14.90;;
51288;SDS011;37372;52.294;5.152;2023-03-01T10:06:39;22.67;;;13.77;;
51288;SDS011;37372;52.294;5.152;2023-03-01T10:09:17;33.17;;;16.90;;
51288;SDS011;37372;52.294;5.152;2023-03-01T10:11:49;27.73;;;15.85;;
51288;SDS011;37372;52.294;5.152;2023-03-01T10:14:32;25.40;;;14.00;;
51288;SDS011;37372;52.294;5.152;2023-03-01T10:17:04;23.38;;;14.10;;
51288;SDS011;37372;52.294;5.152;2023-03-01T10:19:49;24.75;;;14.98;;
51288;SDS011;37372;52.294;5.152;2023-03-01T10:22:28;19.73;;;12.68;;
51288;SDS011;37372;52.294;5.152;2023-03-01T10:24:57;22.98;;;13.20;;
51288;SDS011;37372;52.294;5.152;2023-03-01T10:27:29;25.15;;;13.82;;
51288;SDS011;37372;52.294;5.152;2023-03-01T10:30:35;22.80;;;13.15;;
51288;SDS011;37372;52.294;5.152;2023-03-01T10:33:13;20.60;;;12.80;;
51288;SDS011;37372;52.294;5.152;2023-03-01T10:35:43;17.92;;;10.25;;
51288;SDS011;37372;52.294;5.152;2023-03-01T10:40:51;19.10;;;11.20;;
51288;SDS011;37372;52.294;5.152;2023-03-01T10:46:32;16.05;;;10.25;;
51288;SDS011;37372;52.294;5.152;2023-03-01T10:49:12;16.00;;;9.73;;
51288;SDS011;37372;52.294;5.152;2023-03-01T10:51:39;18.80;;;9.25;;
51288;SDS011;37372;52.294;5.152;2023-03-01T10:54:19;15.20;;;9.20;;
51288;SDS011;37372;52.294;5.152;2023-03-01T10:56:51;17.10;;;9.02;;
51288;SDS011;37372;52.294;5.152;2023-03-01T10:59:27;14.45;;;7.90;;
51288;SDS011;37372;52.294;5.152;2023-03-01T11:02:02;15.18;;;8.07;;
51288;SDS011;37372;52.294;5.152;2023-03-01T11:07:48;16.50;;;7.30;;
51288;SDS011;37372;52.294;5.152;2023-03-01T11:10:19;10.23;;;5.90;;
51288;SDS011;37372;52.294;5.152;2023-03-01T11:12:46;11.98;;;5.22;;
51288;SDS011;37372;52.294;5.152;2023-03-01T11:15:27;9.23;;;5.07;;
51288;SDS011;37372;52.294;5.152;2023-03-01T11:18:03;12.65;;;5.53;;
51288;SDS011;37372;52.294;5.152;2023-03-01T11:20:33;9.10;;;5.03;;
51288;SDS011;37372;52.294;5.152;2023-03-01T11:23:05;10.70;;;5.43;;
51288;SDS011;37372;52.294;5.152;2023-03-01T11:28:51;7.32;;;4.32;;
51288;SDS011;37372;52.294;5.152;2023-03-01T11:31:20;9.48;;;4.70;;
51288;SDS011;37372;52.294;5.152;2023-03-01T11:33:56;11.02;;;5.07;;
51288;SDS011;37372;52.294;5.152;2023-03-01T11:36:39;8.35;;;4.80;;
51288;SDS011;37372;52.294;5.152;2023-03-01T11:42:02;11.93;;;5.35;;
51288;SDS011;37372;52.294;5.152;2023-03-01T11:44:43;9.05;;;5.18;;
51288;SDS011;37372;52.294;5.152;2023-03-01T11:56:29;9.55;;;4.88;;
51288;SDS011;37372;52.294;5.152;2023-03-01T12:02:11;9.02;;;4.95;;
51288;SDS011;37372;52.294;5.152;2023-03-01T12:07:52;9.65;;;5.85;;
51288;SDS011;37372;52.294;5.152;2023-03-01T12:10:27;11.90;;;5.63;;
51288;SDS011;37372;52.294;5.152;2023-03-01T12:27:26;9.38;;;5.13;;
51288;SDS011;37372;52.294;5.152;2023-03-01T12:30:32;8.35;;;4.32;;
51288;SDS011;37372;52.294;5.152;2023-03-01T12:39:08;9.32;;;5.50;;
51288;SDS011;37372;52.294;5.152;2023-03-01T12:42:18;9.55;;;4.88;;
51288;SDS011;37372;52.294;5.152;2023-03-01T12:45:47;9.93;;;5.55;;
51288;SDS011;37372;52.294;5.152;2023-03-01T12:48:36;8.38;;;5.03;;
51288;SDS011;37372;52.294;5.152;2023-03-01T12:51:14;14.10;;;5.88;;
51288;SDS011;37372;52.294;5.152;2023-03-01T12:53:47;11.10;;;6.03;;
51288;SDS011;37372;52.294;5.152;2023-03-01T12:56:15;10.70;;;5.22;;
51288;SDS011;37372;52.294;5.152;2023-03-01T12:59:00;7.75;;;4.80;;
51288;SDS011;37372;52.294;5.152;2023-03-01T13:01:53;10.77;;;5.28;;
51288;SDS011;37372;52.294;5.152;2023-03-01T13:08:01;8.68;;;5.07;;
51288;SDS011;37372;52.294;5.152;2023-03-01T13:10:48;9.98;;;5.10;;
51288;SDS011;37372;52.294;5.152;2023-03-01T13:13:22;7.07;;;4.50;;
51288;SDS011;37372;52.294;5.152;2023-03-01T13:15:49;9.32;;;4.03;;
51288;SDS011;37372;52.294;5.152;2023-03-01T13:20:49;9.77;;;4.18;;
51288;SDS011;37372;52.294;5.152;2023-03-01T13:26:00;9.05;;;4.40;;
51288;SDS011;37372;52.294;5.152;2023-03-01T13:33:54;9.52;;;4.60;;
51288;SDS011;37372;52.294;5.152;2023-03-01T13:38:59;8.20;;;4.15;;
51288;SDS011;37372;52.294;5.152;2023-03-01T14:01:22;8.48;;;5.07;;
51288;SDS011;37372;52.294;5.152;2023-03-01T14:03:47;13.38;;;4.95;;
51288;SDS011;37372;52.294;5.152;2023-03-01T14:06:14;7.47;;;3.95;;
51288;SDS011;37372;52.294;5.152;2023-03-01T14:08:43;8.52;;;4.07;;
51288;SDS011;37372;52.294;5.152;2023-03-01T14:16:59;8.52;;;4.57;;
51288;SDS011;37372;52.294;5.152;2023-03-01T14:19:48;10.43;;;4.65;;
51288;SDS011;37372;52.294;5.152;2023-03-01T14:27:23;8.50;;;4.90;;
51288;SDS011;37372;52.294;5.152;2023-03-01T14:29:58;10.00;;;4.30;;
51288;SDS011;37372;52.294;5.152;2023-03-01T14:32:31;9.75;;;4.18;;
51288;SDS011;37372;52.294;5.152;2023-03-01T14:34:58;7.30;;;4.05;;
51288;SDS011;37372;52.294;5.152;2023-03-01T14:39:54;8.27;;;4.20;;
51288;SDS011;37372;52.294;5.152;2023-03-01T14:42:21;11.27;;;4.32;;
51288;SDS011;37372;52.294;5.152;2023-03-01T14:44:49;10.88;;;4.20;;
51288;SDS011;37372;52.294;5.152;2023-03-01T14:47:23;8.43;;;4.78;;
51288;SDS011;37372;52.294;5.152;2023-03-01T14:49:57;9.85;;;4.28;;
51288;SDS011;37372;52.294;5.152;2023-03-01T14:52:32;8.90;;;5.03;;
51288;SDS011;37372;52.294;5.152;2023-03-01T14:55:50;10.95;;;4.85;;
51288;SDS011;37372;52.294;5.152;2023-03-01T15:00:47;8.27;;;4.57;;
51288;SDS011;37372;52.294;5.152;2023-03-01T15:06:05;8.73;;;4.22;;
51288;SDS011;37372;52.294;5.152;2023-03-01T15:08:35;9.02;;;4.10;;
51288;SDS011;37372;52.294;5.152;2023-03-01T15:11:43;8.65;;;4.30;;
51288;SDS011;37372;52.294;5.152;2023-03-01T15:17:29;11.13;;;5.05;;
51288;SDS011;37372;52.294;5.152;2023-03-01T15:19:58;10.23;;;4.88;;
51288;SDS011;37372;52.294;5.152;2023-03-01T15:22:25;10.02;;;4.32;;
51288;SDS011;37372;52.294;5.152;2023-03-01T15:24:53;9.68;;;4.22;;
51288;SDS011;37372;52.294;5.152;2023-03-01T15:27:20;8.93;;;4.93;;
51288;SDS011;37372;52.294;5.152;2023-03-01T15:30:03;9.50;;;4.97;;
51288;SDS011;37372;52.294;5.152;2023-03-01T15:32:33;9.77;;;4.80;;
51288;SDS011;37372;52.294;5.152;2023-03-01T15:41:46;7.85;;;4.28;;
51288;SDS011;37372;52.294;5.152;2023-03-01T15:44:25;7.68;;;4.60;;
51288;SDS011;37372;52.294;5.152;2023-03-01T15:47:01;8.40;;;5.05;;
51288;SDS011;37372;52.294;5.152;2023-03-01T15:54:42;8.95;;;4.25;;
51288;SDS011;37372;52.294;5.152;2023-03-01T15:57:13;10.18;;;4.95;;
51288;SDS011;37372;52.294;5.152;2023-03-01T15:59:41;11.88;;;5.13;;
51288;SDS011;37372;52.294;5.152;2023-03-01T16:02:11;7.63;;;4.32;;
51288;SDS011;37372;52.294;5.152;2023-03-01T16:04:41;8.02;;;4.25;;
51288;SDS011;37372;52.294;5.152;2023-03-01T16:07:09;10.23;;;4.65;;
51288;SDS011;37372;52.294;5.152;2023-03-01T16:12:23;9.75;;;4.85;;
51288;SDS011;37372;52.294;5.152;2023-03-01T16:14:50;10.32;;;4.72;;
51288;SDS011;37372;52.294;5.152;2023-03-01T16:17:23;8.77;;;4.40;;
51288;SDS011;37372;52.294;5.152;2023-03-01T16:19:50;8.68;;;4.55;;
51288;SDS011;37372;52.294;5.152;2023-03-01T16:22:16;8.73;;;4.57;;
51288;SDS011;37372;52.294;5.152;2023-03-01T16:24:48;9.23;;;5.13;;
51288;SDS011;37372;52.294;5.152;2023-03-01T16:27:15;8.07;;;4.28;;
51288;SDS011;37372;52.294;5.152;2023-03-01T16:29:41;9.05;;;5.00;;
51288;SDS011;37372;52.294;5.152;2023-03-01T16:32:14;10.93;;;4.95;;
51288;SDS011;37372;52.294;5.152;2023-03-01T16:34:51;12.50;;;5.47;;
51288;SDS011;37372;52.294;5.152;2023-03-01T16:37:17;11.52;;;4.40;;
51288;SDS011;37372;52.294;5.152;2023-03-01T16:39:47;9.50;;;4.88;;
51288;SDS011;37372;52.294;5.152;2023-03-01T16:42:15;10.80;;;4.68;;
51288;SDS011;37372;52.294;5.152;2023-03-01T16:44:59;10.02;;;4.95;;
51288;SDS011;37372;52.294;5.152;2023-03-01T16:47:49;10.50;;;5.97;;
51288;SDS011;37372;52.294;5.152;2023-03-01T16:50:26;8.45;;;5.05;;
51288;SDS011;37372;52.294;5.152;2023-03-01T16:52:52;9.73;;;5.13;;
51288;SDS011;37372;52.294;5.152;2023-03-01T16:55:18;10.88;;;5.07;;
51288;SDS011;37372;52.294;5.152;2023-03-01T16:57:48;9.60;;;4.85;;
51288;SDS011;37372;52.294;5.152;2023-03-01T17:00:20;14.18;;;5.60;;
51288;SDS011;37372;52.294;5.152;2023-03-01T17:02:48;10.35;;;5.40;;
51288;SDS011;37372;52.294;5.152;2023-03-01T17:05:14;12.77;;;6.50;;
51288;SDS011;37372;52.294;5.152;2023-03-01T17:07:46;11.82;;;6.38;;
51288;SDS011;37372;52.294;5.152;2023-03-01T17:10:12;12.02;;;5.80;;
51288;SDS011;37372;52.294;5.152;2023-03-01T17:12:38;10.07;;;5.30;;
51288;SDS011;37372;52.294;5.152;2023-03-01T17:15:04;10.27;;;5.68;;
51288;SDS011;37372;52.294;5.152;2023-03-01T17:17:32;11.48;;;5.95;;
51288;SDS011;37372;52.294;5.152;2023-03-01T17:20:01;10.15;;;5.28;;
51288;SDS011;37372;52.294;5.152;2023-03-01T17:22:32;9.88;;;5.28;;
51288;SDS011;37372;52.294;5.152;2023-03-01T17:25:31;10.13;;;5.90;;